sensor_id;sensor_type;location;lat;lon;timestamp;P1;durP1;ratioP1;P2;durP2;ratioP2
48042;SDS011;33988;47.992;8.820;2023-01-09T00:01:41;2.30;;;2.10;;
48042;SDS011;33988;47.992;8.820;2023-01-09T00:04:11;2.40;;;2.15;;
48042;SDS011;33988;47.992;8.820;2023-01-09T00:06:41;2.40;;;2.10;;
48042;SDS011;33988;47.992;8.820;2023-01-09T00:09:09;2.38;;;2.13;;
48042;SDS011;33988;47.992;8.820;2023-01-09T00:11:39;2.67;;;2.17;;
48042;SDS011;33988;47.992;8.820;2023-01-09T00:14:06;3.67;;;2.30;;
48042;SDS011;33988;47.992;8.820;2023-01-09T00:16:39;2.95;;;2.03;;
48042;SDS011;33988;47.992;8.820;2023-01-09T00:19:06;2.42;;;2.03;;
48042;SDS011;33988;47.992;8.820;2023-01-09T00:21:33;2.40;;;2.20;;
48042;SDS011;33988;47.992;8.820;2023-01-09T00:24:01;3.13;;;1.98;;
48042;SDS011;33988;47.992;8.820;2023-01-09T00:26:31;2.08;;;1.88;;
48042;SDS011;33988;47.992;8.820;2023-01-09T00:31:34;1.90;;;1.80;;
48042;SDS011;33988;47.992;8.820;2023-01-09T00:34:03;2.53;;;2.13;;
48042;SDS011;33988;47.992;8.820;2023-01-09T00:36:37;2.17;;;1.85;;
48042;SDS011;33988;47.992;8.820;2023-01-09T00:39:04;2.35;;;2.10;;
48042;SDS011;33988;47.992;8.820;2023-01-09T00:41:34;2.33;;;2.13;;
48042;SDS011;33988;47.992;8.820;2023-01-09T00:44:19;3.15;;;2.53;;
48042;SDS011;33988;47.992;8.820;2023-01-09T00:46:56;17.63;;;10.55;;
48042;SDS011;33988;47.992;8.820;2023-01-09T00:51:55;3.55;;;2.60;;
48042;SDS011;33988;47.992;8.820;2023-01-09T00:54:26;2.50;;;2.30;;
48042;SDS011;33988;47.992;8.820;2023-01-09T00:56:55;2.35;;;2.10;;
48042;SDS011;33988;47.992;8.820;2023-01-09T00:59:25;2.40;;;2.20;;
48042;SDS011;33988;47.992;8.820;2023-01-09T01:01:53;2.63;;;2.22;;
48042;SDS011;33988;47.992;8.820;2023-01-09T01:04:23;2.28;;;2.08;;
48042;SDS011;33988;47.992;8.820;2023-01-09T01:07:08;2.30;;;2.10;;
48042;SDS011;33988;47.992;8.820;2023-01-09T01:09:54;2.40;;;2.17;;
48042;SDS011;33988;47.992;8.820;2023-01-09T01:12:21;6.38;;;2.35;;
48042;SDS011;33988;47.992;8.820;2023-01-09T01:14:48;2.28;;;2.08;;
48042;SDS011;33988;47.992;8.820;2023-01-09T01:17:15;2.75;;;2.35;;
48042;SDS011;33988;47.992;8.820;2023-01-09T01:19:47;2.90;;;2.25;;
48042;SDS011;33988;47.992;8.820;2023-01-09T01:22:14;2.10;;;1.90;;
48042;SDS011;33988;47.992;8.820;2023-01-09T01:24:43;2.40;;;2.20;;
48042;SDS011;33988;47.992;8.820;2023-01-09T01:27:10;2.65;;;1.92;;
48042;SDS011;33988;47.992;8.820;2023-01-09T01:29:37;2.25;;;2.05;;
48042;SDS011;33988;47.992;8.820;2023-01-09T01:32:06;2.22;;;2.03;;
48042;SDS011;33988;47.992;8.820;2023-01-09T01:34:36;2.50;;;2.20;;
48042;SDS011;33988;47.992;8.820;2023-01-09T01:37:06;2.15;;;1.95;;
48042;SDS011;33988;47.992;8.820;2023-01-09T01:39:37;2.15;;;1.95;;
48042;SDS011;33988;47.992;8.820;2023-01-09T01:42:07;2.40;;;2.20;;
48042;SDS011;33988;47.992;8.820;2023-01-09T02:01:48;1.90;;;1.65;;
48042;SDS011;33988;47.992;8.820;2023-01-09T02:04:21;1.95;;;1.52;;
48042;SDS011;33988;47.992;8.820;2023-01-09T02:06:50;1.70;;;1.60;;
48042;SDS011;33988;47.992;8.820;2023-01-09T02:09:19;1.95;;;1.70;;
48042;SDS011;33988;47.992;8.820;2023-01-09T02:11:51;1.60;;;1.50;;
48042;SDS011;33988;47.992;8.820;2023-01-09T02:14:26;1.40;;;1.27;;
48042;SDS011;33988;47.992;8.820;2023-01-09T02:17:07;0.95;;;0.95;;
48042;SDS011;33988;47.992;8.820;2023-01-09T02:32:25;0.93;;;0.90;;
48042;SDS011;33988;47.992;8.820;2023-01-09T02:38:11;1.10;;;0.93;;
48042;SDS011;33988;47.992;8.820;2023-01-09T02:41:23;0.85;;;0.85;;
48042;SDS011;33988;47.992;8.820;2023-01-09T02:44:21;1.38;;;1.10;;
48042;SDS011;33988;47.992;8.820;2023-01-09T02:49:34;1.70;;;1.20;;
48042;SDS011;33988;47.992;8.820;2023-01-09T03:06:04;1.45;;;1.35;;
48042;SDS011;33988;47.992;8.820;2023-01-09T03:08:40;1.40;;;1.30;;
48042;SDS011;33988;47.992;8.820;2023-01-09T03:11:14;2.17;;;1.30;;
48042;SDS011;33988;47.992;8.820;2023-01-09T03:16:22;1.27;;;1.17;;
48042;SDS011;33988;47.992;8.820;2023-01-09T03:18:59;1.23;;;1.13;;
48042;SDS011;33988;47.992;8.820;2023-01-09T03:21:29;2.55;;;1.02;;
48042;SDS011;33988;47.992;8.820;2023-01-09T03:23:58;0.88;;;0.88;;
48042;SDS011;33988;47.992;8.820;2023-01-09T03:26:27;0.73;;;0.73;;
48042;SDS011;33988;47.992;8.820;2023-01-09T03:28:58;0.80;;;0.77;;
48042;SDS011;33988;47.992;8.820;2023-01-09T03:31:27;1.25;;;0.80;;
48042;SDS011;33988;47.992;8.820;2023-01-09T03:33:54;0.80;;;0.77;;
48042;SDS011;33988;47.992;8.820;2023-01-09T03:36:21;0.90;;;0.80;;
48042;SDS011;33988;47.992;8.820;2023-01-09T03:38:52;0.82;;;0.70;;
48042;SDS011;33988;47.992;8.820;2023-01-09T03:41:23;0.82;;;0.70;;
48042;SDS011;33988;47.992;8.820;2023-01-09T03:43:51;0.57;;;0.50;;
48042;SDS011;33988;47.992;8.820;2023-01-09T03:46:20;0.50;;;0.50;;
48042;SDS011;33988;47.992;8.820;2023-01-09T03:48:47;0.95;;;0.68;;
48042;SDS011;33988;47.992;8.820;2023-01-09T03:51:13;0.70;;;0.50;;
48042;SDS011;33988;47.992;8.820;2023-01-09T03:53:42;0.45;;;0.45;;
48042;SDS011;33988;47.992;8.820;2023-01-09T03:56:09;0.50;;;0.50;;
48042;SDS011;33988;47.992;8.820;2023-01-09T03:58:41;0.40;;;0.40;;
48042;SDS011;33988;47.992;8.820;2023-01-09T04:01:11;0.52;;;0.52;;
48042;SDS011;33988;47.992;8.820;2023-01-09T04:03:38;0.45;;;0.45;;
48042;SDS011;33988;47.992;8.820;2023-01-09T04:06:06;0.95;;;0.50;;
48042;SDS011;33988;47.992;8.820;2023-01-09T04:08:36;0.55;;;0.40;;
48042;SDS011;33988;47.992;8.820;2023-01-09T04:11:04;0.30;;;0.30;;
48042;SDS011;33988;47.992;8.820;2023-01-09T04:13:31;0.30;;;0.30;;
48042;SDS011;33988;47.992;8.820;2023-01-09T04:16:01;0.25;;;0.25;;
48042;SDS011;33988;47.992;8.820;2023-01-09T04:18:28;0.30;;;0.30;;
48042;SDS011;33988;47.992;8.820;2023-01-09T04:20:57;0.75;;;0.30;;
48042;SDS011;33988;47.992;8.820;2023-01-09T04:23:29;5.43;;;3.47;;
48042;SDS011;33988;47.992;8.820;2023-01-09T04:25:58;1.20;;;0.90;;
48042;SDS011;33988;47.992;8.820;2023-01-09T04:28:27;0.32;;;0.32;;
48042;SDS011;33988;47.992;8.820;2023-01-09T04:33:28;0.25;;;0.25;;
48042;SDS011;33988;47.992;8.820;2023-01-09T04:35:58;0.20;;;0.20;;
48042;SDS011;33988;47.992;8.820;2023-01-09T04:38:25;0.50;;;0.20;;
48042;SDS011;33988;47.992;8.820;2023-01-09T04:40:52;0.20;;;0.20;;
48042;SDS011;33988;47.992;8.820;2023-01-09T04:43:19;1.08;;;0.32;;
48042;SDS011;33988;47.992;8.820;2023-01-09T04:45:46;0.20;;;0.20;;
48042;SDS011;33988;47.992;8.820;2023-01-09T04:48:13;0.20;;;0.20;;
48042;SDS011;33988;47.992;8.820;2023-01-09T04:50:40;0.88;;;0.20;;
48042;SDS011;33988;47.992;8.820;2023-01-09T04:53:07;0.55;;;0.30;;
48042;SDS011;33988;47.992;8.820;2023-01-09T04:55:37;0.20;;;0.20;;
48042;SDS011;33988;47.992;8.820;2023-01-09T04:58:06;0.30;;;0.30;;
48042;SDS011;33988;47.992;8.820;2023-01-09T05:00:33;0.40;;;0.40;;
48042;SDS011;33988;47.992;8.820;2023-01-09T05:03:02;0.32;;;0.32;;
48042;SDS011;33988;47.992;8.820;2023-01-09T05:05:32;0.30;;;0.30;;
48042;SDS011;33988;47.992;8.820;2023-01-09T05:10:31;0.30;;;0.28;;
48042;SDS011;33988;47.992;8.820;2023-01-09T05:12:58;0.32;;;0.30;;
48042;SDS011;33988;47.992;8.820;2023-01-09T05:15:26;0.10;;;0.10;;
48042;SDS011;33988;47.992;8.820;2023-01-09T05:17:56;0.30;;;0.20;;
48042;SDS011;33988;47.992;8.820;2023-01-09T05:20:25;0.20;;;0.20;;
48042;SDS011;33988;47.992;8.820;2023-01-09T05:22:52;0.80;;;0.30;;
48042;SDS011;33988;47.992;8.820;2023-01-09T05:25:25;0.28;;;0.28;;
48042;SDS011;33988;47.992;8.820;2023-01-09T05:27:52;0.20;;;0.20;;
48042;SDS011;33988;47.992;8.820;2023-01-09T05:30:19;0.20;;;0.20;;
48042;SDS011;33988;47.992;8.820;2023-01-09T05:32:46;0.10;;;0.10;;
48042;SDS011;33988;47.992;8.820;2023-01-09T05:35:15;0.20;;;0.20;;
48042;SDS011;33988;47.992;8.820;2023-01-09T05:37:45;0.10;;;0.10;;
48042;SDS011;33988;47.992;8.820;2023-01-09T05:40:15;0.20;;;0.20;;
48042;SDS011;33988;47.992;8.820;2023-01-09T05:42:42;0.40;;;0.20;;
48042;SDS011;33988;47.992;8.820;2023-01-09T05:45:10;0.20;;;0.20;;
48042;SDS011;33988;47.992;8.820;2023-01-09T05:47:37;0.30;;;0.30;;
48042;SDS011;33988;47.992;8.820;2023-01-09T05:50:04;0.38;;;0.30;;
48042;SDS011;33988;47.992;8.820;2023-01-09T05:52:31;1.38;;;0.40;;
48042;SDS011;33988;47.992;8.820;2023-01-09T05:55:00;0.55;;;0.40;;
48042;SDS011;33988;47.992;8.820;2023-01-09T05:57:27;0.65;;;0.40;;
48042;SDS011;33988;47.992;8.820;2023-01-09T05:59:57;0.50;;;0.30;;
48042;SDS011;33988;47.992;8.820;2023-01-09T06:02:26;1.38;;;0.40;;
48042;SDS011;33988;47.992;8.820;2023-01-09T06:04:53;0.40;;;0.40;;
48042;SDS011;33988;47.992;8.820;2023-01-09T06:07:20;0.55;;;0.40;;
48042;SDS011;33988;47.992;8.820;2023-01-09T06:09:48;0.52;;;0.30;;
48042;SDS011;33988;47.992;8.820;2023-01-09T06:12:20;1.02;;;0.40;;
48042;SDS011;33988;47.992;8.820;2023-01-09T06:14:49;0.60;;;0.50;;
48042;SDS011;33988;47.992;8.820;2023-01-09T06:17:21;0.75;;;0.70;;
48042;SDS011;33988;47.992;8.820;2023-01-09T06:19:50;0.85;;;0.50;;
48042;SDS011;33988;47.992;8.820;2023-01-09T06:22:20;0.80;;;0.60;;
48042;SDS011;33988;47.992;8.820;2023-01-09T06:24:49;0.70;;;0.40;;
48042;SDS011;33988;47.992;8.820;2023-01-09T06:27:16;0.77;;;0.60;;
48042;SDS011;33988;47.992;8.820;2023-01-09T06:29:48;2.60;;;1.08;;
48042;SDS011;33988;47.992;8.820;2023-01-09T06:32:17;1.73;;;0.88;;
48042;SDS011;33988;47.992;8.820;2023-01-09T06:34:43;1.48;;;0.80;;
48042;SDS011;33988;47.992;8.820;2023-01-09T06:37:13;1.55;;;0.55;;
48042;SDS011;33988;47.992;8.820;2023-01-09T06:39:42;0.40;;;0.30;;
48042;SDS011;33988;47.992;8.820;2023-01-09T06:42:09;1.45;;;0.57;;
48042;SDS011;33988;47.992;8.820;2023-01-09T06:44:36;0.40;;;0.40;;
48042;SDS011;33988;47.992;8.820;2023-01-09T06:47:03;1.27;;;0.60;;
48042;SDS011;33988;47.992;8.820;2023-01-09T06:49:33;0.70;;;0.60;;
48042;SDS011;33988;47.992;8.820;2023-01-09T06:52:02;5.90;;;3.50;;
48042;SDS011;33988;47.992;8.820;2023-01-09T06:54:35;5.10;;;2.75;;
48042;SDS011;33988;47.992;8.820;2023-01-09T06:59:33;1.23;;;0.90;;
48042;SDS011;33988;47.992;8.820;2023-01-09T07:02:05;2.20;;;1.00;;
48042;SDS011;33988;47.992;8.820;2023-01-09T07:04:36;0.60;;;0.60;;
48042;SDS011;33988;47.992;8.820;2023-01-09T07:07:07;1.20;;;0.88;;
48042;SDS011;33988;47.992;8.820;2023-01-09T07:09:34;0.52;;;0.52;;
48042;SDS011;33988;47.992;8.820;2023-01-09T07:12:01;0.60;;;0.55;;
48042;SDS011;33988;47.992;8.820;2023-01-09T07:14:31;2.15;;;0.60;;
48042;SDS011;33988;47.992;8.820;2023-01-09T07:16:59;2.28;;;0.57;;
48042;SDS011;33988;47.992;8.820;2023-01-09T07:19:26;1.65;;;0.73;;
48042;SDS011;33988;47.992;8.820;2023-01-09T07:21:55;1.60;;;0.80;;
48042;SDS011;33988;47.992;8.820;2023-01-09T07:24:25;1.92;;;0.60;;
48042;SDS011;33988;47.992;8.820;2023-01-09T07:26:52;2.40;;;0.60;;
48042;SDS011;33988;47.992;8.820;2023-01-09T07:29:21;1.05;;;0.80;;
48042;SDS011;33988;47.992;8.820;2023-01-09T07:31:48;2.35;;;1.58;;
48042;SDS011;33988;47.992;8.820;2023-01-09T07:34:15;1.25;;;1.15;;
48042;SDS011;33988;47.992;8.820;2023-01-09T07:36:42;2.05;;;1.10;;
48042;SDS011;33988;47.992;8.820;2023-01-09T07:39:12;1.05;;;0.70;;
48042;SDS011;33988;47.992;8.820;2023-01-09T07:41:39;1.55;;;0.68;;
48042;SDS011;33988;47.992;8.820;2023-01-09T07:44:06;2.00;;;0.57;;
48042;SDS011;33988;47.992;8.820;2023-01-09T07:46:36;2.05;;;0.70;;
48042;SDS011;33988;47.992;8.820;2023-01-09T07:49:06;4.95;;;1.23;;
48042;SDS011;33988;47.992;8.820;2023-01-09T07:51:33;3.00;;;0.77;;
48042;SDS011;33988;47.992;8.820;2023-01-09T07:54:00;1.83;;;0.63;;
48042;SDS011;33988;47.992;8.820;2023-01-09T07:56:29;1.45;;;0.70;;
48042;SDS011;33988;47.992;8.820;2023-01-09T07:58:58;3.40;;;0.85;;
48042;SDS011;33988;47.992;8.820;2023-01-09T08:01:27;2.90;;;0.90;;
48042;SDS011;33988;47.992;8.820;2023-01-09T08:03:56;1.88;;;0.70;;
48042;SDS011;33988;47.992;8.820;2023-01-09T08:06:23;1.20;;;0.77;;
48042;SDS011;33988;47.992;8.820;2023-01-09T08:08:50;1.67;;;0.70;;
48042;SDS011;33988;47.992;8.820;2023-01-09T08:11:17;4.20;;;0.90;;
48042;SDS011;33988;47.992;8.820;2023-01-09T08:13:46;2.50;;;0.88;;
48042;SDS011;33988;47.992;8.820;2023-01-09T08:16:13;2.65;;;0.75;;
48042;SDS011;33988;47.992;8.820;2023-01-09T08:18:40;2.58;;;0.70;;
48042;SDS011;33988;47.992;8.820;2023-01-09T08:21:08;1.85;;;0.65;;
48042;SDS011;33988;47.992;8.820;2023-01-09T08:23:36;2.40;;;0.80;;
48042;SDS011;33988;47.992;8.820;2023-01-09T08:26:03;2.97;;;0.65;;
48042;SDS011;33988;47.992;8.820;2023-01-09T08:28:31;2.17;;;0.82;;
48042;SDS011;33988;47.992;8.820;2023-01-09T08:31:00;1.33;;;0.88;;
48042;SDS011;33988;47.992;8.820;2023-01-09T08:33:27;3.78;;;1.30;;
48042;SDS011;33988;47.992;8.820;2023-01-09T08:35:57;2.70;;;1.00;;
48042;SDS011;33988;47.992;8.820;2023-01-09T08:38:24;3.25;;;0.93;;
48042;SDS011;33988;47.992;8.820;2023-01-09T08:40:51;2.90;;;1.13;;
48042;SDS011;33988;47.992;8.820;2023-01-09T08:43:18;2.58;;;0.88;;
48042;SDS011;33988;47.992;8.820;2023-01-09T08:46:07;3.33;;;1.13;;
48042;SDS011;33988;47.992;8.820;2023-01-09T08:49:03;1.83;;;0.85;;
48042;SDS011;33988;47.992;8.820;2023-01-09T08:51:30;1.63;;;0.82;;
48042;SDS011;33988;47.992;8.820;2023-01-09T08:53:59;1.75;;;0.80;;
48042;SDS011;33988;47.992;8.820;2023-01-09T08:56:26;1.40;;;0.90;;
48042;SDS011;33988;47.992;8.820;2023-01-09T08:58:53;4.38;;;1.17;;
48042;SDS011;33988;47.992;8.820;2023-01-09T09:01:20;1.45;;;0.70;;
48042;SDS011;33988;47.992;8.820;2023-01-09T09:03:49;2.58;;;0.88;;
48042;SDS011;33988;47.992;8.820;2023-01-09T09:06:15;4.38;;;0.85;;
48042;SDS011;33988;47.992;8.820;2023-01-09T09:08:42;2.38;;;0.70;;
48042;SDS011;33988;47.992;8.820;2023-01-09T09:11:09;1.67;;;0.95;;
48042;SDS011;33988;47.992;8.820;2023-01-09T09:13:41;1.88;;;1.08;;
48042;SDS011;33988;47.992;8.820;2023-01-09T09:16:08;3.17;;;0.88;;
48042;SDS011;33988;47.992;8.820;2023-01-09T09:18:37;1.58;;;0.82;;
48042;SDS011;33988;47.992;8.820;2023-01-09T09:21:05;2.25;;;0.80;;
48042;SDS011;33988;47.992;8.820;2023-01-09T09:23:31;2.70;;;0.88;;
48042;SDS011;33988;47.992;8.820;2023-01-09T09:26:02;1.85;;;1.00;;
48042;SDS011;33988;47.992;8.820;2023-01-09T09:28:28;2.47;;;1.10;;
48042;SDS011;33988;47.992;8.820;2023-01-09T09:30:58;3.85;;;1.00;;
48042;SDS011;33988;47.992;8.820;2023-01-09T09:33:25;2.55;;;0.90;;
48042;SDS011;33988;47.992;8.820;2023-01-09T09:35:52;3.65;;;1.10;;
48042;SDS011;33988;47.992;8.820;2023-01-09T09:38:21;5.05;;;1.30;;
48042;SDS011;33988;47.992;8.820;2023-01-09T09:41:01;3.50;;;0.85;;
48042;SDS011;33988;47.992;8.820;2023-01-09T09:53:15;4.20;;;1.13;;
48042;SDS011;33988;47.992;8.820;2023-01-09T09:55:52;2.90;;;0.93;;
48042;SDS011;33988;47.992;8.820;2023-01-09T10:01:14;2.35;;;0.77;;
48042;SDS011;33988;47.992;8.820;2023-01-09T10:03:49;2.92;;;0.90;;
48042;SDS011;33988;47.992;8.820;2023-01-09T10:06:39;2.95;;;1.23;;
48042;SDS011;33988;47.992;8.820;2023-01-09T10:14:46;1.75;;;0.75;;
48042;SDS011;33988;47.992;8.820;2023-01-09T10:23:02;4.22;;;1.33;;
48042;SDS011;33988;47.992;8.820;2023-01-09T10:26:23;2.33;;;1.10;;
48042;SDS011;33988;47.992;8.820;2023-01-09T10:38:12;0.80;;;0.60;;
48042;SDS011;33988;47.992;8.820;2023-01-09T10:41:07;1.15;;;0.70;;
48042;SDS011;33988;47.992;8.820;2023-01-09T10:43:52;1.55;;;0.70;;
48042;SDS011;33988;47.992;8.820;2023-01-09T10:46:27;2.10;;;0.90;;
48042;SDS011;33988;47.992;8.820;2023-01-09T10:49:04;5.72;;;2.42;;
48042;SDS011;33988;47.992;8.820;2023-01-09T10:51:48;3.60;;;1.10;;
48042;SDS011;33988;47.992;8.820;2023-01-09T10:54:43;2.78;;;1.23;;
48042;SDS011;33988;47.992;8.820;2023-01-09T11:00:16;2.92;;;0.93;;
48042;SDS011;33988;47.992;8.820;2023-01-09T11:02:49;3.03;;;0.90;;
48042;SDS011;33988;47.992;8.820;2023-01-09T11:05:19;3.53;;;0.90;;
48042;SDS011;33988;47.992;8.820;2023-01-09T11:08:40;1.98;;;0.88;;
48042;SDS011;33988;47.992;8.820;2023-01-09T11:10:55;3.10;;;0.80;;
48042;SDS011;33988;47.992;8.820;2023-01-09T11:13:32;3.10;;;1.17;;
48042;SDS011;33988;47.992;8.820;2023-01-09T11:24:23;2.22;;;0.88;;
48042;SDS011;33988;47.992;8.820;2023-01-09T11:26:53;1.38;;;0.63;;
48042;SDS011;33988;47.992;8.820;2023-01-09T11:29:48;1.00;;;0.90;;
48042;SDS011;33988;47.992;8.820;2023-01-09T11:32:45;2.28;;;1.50;;
48042;SDS011;33988;47.992;8.820;2023-01-09T11:35:18;2.20;;;1.35;;
48042;SDS011;33988;47.992;8.820;2023-01-09T11:37:59;2.92;;;1.02;;
48042;SDS011;33988;47.992;8.820;2023-01-09T11:40:55;3.63;;;1.30;;
48042;SDS011;33988;47.992;8.820;2023-01-09T11:46:07;4.30;;;0.98;;
48042;SDS011;33988;47.992;8.820;2023-01-09T11:48:38;4.10;;;1.00;;
48042;SDS011;33988;47.992;8.820;2023-01-09T11:51:27;4.97;;;1.30;;
48042;SDS011;33988;47.992;8.820;2023-01-09T11:57:09;3.95;;;0.70;;
48042;SDS011;33988;47.992;8.820;2023-01-09T11:59:37;2.15;;;0.90;;
48042;SDS011;33988;47.992;8.820;2023-01-09T12:02:10;2.28;;;0.90;;
48042;SDS011;33988;47.992;8.820;2023-01-09T12:08:42;3.67;;;1.30;;
48042;SDS011;33988;47.992;8.820;2023-01-09T12:11:35;2.83;;;0.77;;
48042;SDS011;33988;47.992;8.820;2023-01-09T12:14:34;3.10;;;0.90;;
48042;SDS011;33988;47.992;8.820;2023-01-09T12:17:36;1.75;;;0.50;;
48042;SDS011;33988;47.992;8.820;2023-01-09T12:44:12;1.85;;;0.80;;
48042;SDS011;33988;47.992;8.820;2023-01-09T12:47:30;1.73;;;0.77;;
48042;SDS011;33988;47.992;8.820;2023-01-09T12:53:24;1.63;;;0.80;;
48042;SDS011;33988;47.992;8.820;2023-01-09T12:56:00;2.00;;;1.10;;
48042;SDS011;33988;47.992;8.820;2023-01-09T13:01:17;1.67;;;0.82;;
48042;SDS011;33988;47.992;8.820;2023-01-09T13:04:08;1.02;;;0.70;;
48042;SDS011;33988;47.992;8.820;2023-01-09T13:07:01;0.95;;;0.68;;
48042;SDS011;33988;47.992;8.820;2023-01-09T13:09:37;0.80;;;0.73;;
48042;SDS011;33988;47.992;8.820;2023-01-09T13:12:15;1.00;;;0.77;;
48042;SDS011;33988;47.992;8.820;2023-01-09T13:14:51;1.10;;;0.52;;
48042;SDS011;33988;47.992;8.820;2023-01-09T13:20:08;1.00;;;0.50;;
48042;SDS011;33988;47.992;8.820;2023-01-09T13:22:42;0.40;;;0.40;;
48042;SDS011;33988;47.992;8.820;2023-01-09T13:28:46;0.63;;;0.47;;
48042;SDS011;33988;47.992;8.820;2023-01-09T13:33:56;0.50;;;0.50;;
48042;SDS011;33988;47.992;8.820;2023-01-09T13:36:32;1.85;;;1.10;;
48042;SDS011;33988;47.992;8.820;2023-01-09T13:39:05;1.25;;;0.90;;
48042;SDS011;33988;47.992;8.820;2023-01-09T13:41:45;1.15;;;0.75;;
48042;SDS011;33988;47.992;8.820;2023-01-09T13:44:34;1.25;;;0.80;;
48042;SDS011;33988;47.992;8.820;2023-01-09T13:47:01;1.02;;;0.88;;
48042;SDS011;33988;47.992;8.820;2023-01-09T14:10:34;2.38;;;0.77;;
48042;SDS011;33988;47.992;8.820;2023-01-09T14:13:19;1.00;;;0.63;;
48042;SDS011;33988;47.992;8.820;2023-01-09T14:15:59;1.52;;;0.63;;
48042;SDS011;33988;47.992;8.820;2023-01-09T14:18:33;1.53;;;0.90;;
48042;SDS011;33988;47.992;8.820;2023-01-09T14:21:09;3.35;;;1.00;;
48042;SDS011;33988;47.992;8.820;2023-01-09T14:26:42;1.25;;;0.60;;
48042;SDS011;33988;47.992;8.820;2023-01-09T14:34:56;1.60;;;0.70;;
48042;SDS011;33988;47.992;8.820;2023-01-09T14:37:33;0.88;;;0.60;;
48042;SDS011;33988;47.992;8.820;2023-01-09T14:40:06;3.17;;;0.60;;
48042;SDS011;33988;47.992;8.820;2023-01-09T14:42:49;1.55;;;0.47;;
48042;SDS011;33988;47.992;8.820;2023-01-09T14:45:23;0.85;;;0.50;;
48042;SDS011;33988;47.992;8.820;2023-01-09T14:47:54;0.68;;;0.60;;
48042;SDS011;33988;47.992;8.820;2023-01-09T14:55:57;1.58;;;0.63;;
48042;SDS011;33988;47.992;8.820;2023-01-09T15:03:39;3.00;;;1.20;;
48042;SDS011;33988;47.992;8.820;2023-01-09T15:06:12;4.13;;;1.70;;
48042;SDS011;33988;47.992;8.820;2023-01-09T15:09:00;1.10;;;0.90;;
48042;SDS011;33988;47.992;8.820;2023-01-09T15:11:30;1.90;;;1.17;;
48042;SDS011;33988;47.992;8.820;2023-01-09T15:14:01;4.72;;;2.25;;
48042;SDS011;33988;47.992;8.820;2023-01-09T15:16:30;3.25;;;1.88;;
48042;SDS011;33988;47.992;8.820;2023-01-09T15:19:01;1.80;;;1.05;;
48042;SDS011;33988;47.992;8.820;2023-01-09T15:21:33;3.63;;;1.30;;
48042;SDS011;33988;47.992;8.820;2023-01-09T15:24:20;2.80;;;1.00;;
48042;SDS011;33988;47.992;8.820;2023-01-09T15:26:56;5.93;;;3.55;;
48042;SDS011;33988;47.992;8.820;2023-01-09T15:29:50;5.35;;;3.10;;
48042;SDS011;33988;47.992;8.820;2023-01-09T15:34:58;2.85;;;1.75;;
48042;SDS011;33988;47.992;8.820;2023-01-09T15:37:30;2.47;;;1.35;;
48042;SDS011;33988;47.992;8.820;2023-01-09T15:40:04;1.83;;;1.25;;
48042;SDS011;33988;47.992;8.820;2023-01-09T15:42:36;1.45;;;1.20;;
48042;SDS011;33988;47.992;8.820;2023-01-09T15:45:32;3.05;;;1.40;;
48042;SDS011;33988;47.992;8.820;2023-01-09T15:50:46;3.35;;;1.88;;
48042;SDS011;33988;47.992;8.820;2023-01-09T15:53:22;5.50;;;2.00;;
48042;SDS011;33988;47.992;8.820;2023-01-09T15:58:34;3.58;;;2.10;;
48042;SDS011;33988;47.992;8.820;2023-01-09T16:01:11;4.25;;;2.40;;
48042;SDS011;33988;47.992;8.820;2023-01-09T16:03:50;4.65;;;3.17;;
48042;SDS011;33988;47.992;8.820;2023-01-09T16:06:26;4.20;;;1.73;;
48042;SDS011;33988;47.992;8.820;2023-01-09T16:08:55;2.50;;;1.85;;
48042;SDS011;33988;47.992;8.820;2023-01-09T16:11:31;5.28;;;2.33;;
48042;SDS011;33988;47.992;8.820;2023-01-09T16:14:19;3.95;;;2.47;;
48042;SDS011;33988;47.992;8.820;2023-01-09T16:16:50;3.97;;;2.80;;
48042;SDS011;33988;47.992;8.820;2023-01-09T16:22:25;2.42;;;1.77;;
48042;SDS011;33988;47.992;8.820;2023-01-09T16:24:56;4.53;;;2.40;;
48042;SDS011;33988;47.992;8.820;2023-01-09T16:27:30;5.57;;;2.72;;
48042;SDS011;33988;47.992;8.820;2023-01-09T16:30:18;4.43;;;2.67;;
48042;SDS011;33988;47.992;8.820;2023-01-09T16:32:54;4.90;;;2.47;;
48042;SDS011;33988;47.992;8.820;2023-01-09T16:35:21;12.00;;;5.63;;
48042;SDS011;33988;47.992;8.820;2023-01-09T16:37:53;7.85;;;3.45;;
48042;SDS011;33988;47.992;8.820;2023-01-09T16:40:23;2.63;;;1.65;;
48042;SDS011;33988;47.992;8.820;2023-01-09T16:42:57;2.47;;;1.58;;
48042;SDS011;33988;47.992;8.820;2023-01-09T16:45:27;3.13;;;1.98;;
48042;SDS011;33988;47.992;8.820;2023-01-09T16:48:16;2.25;;;1.65;;
48042;SDS011;33988;47.992;8.820;2023-01-09T16:50:46;3.17;;;2.40;;
48042;SDS011;33988;47.992;8.820;2023-01-09T16:53:17;5.10;;;2.13;;
48042;SDS011;33988;47.992;8.820;2023-01-09T16:55:52;2.65;;;1.75;;
48042;SDS011;33988;47.992;8.820;2023-01-09T16:58:29;3.00;;;1.70;;
48042;SDS011;33988;47.992;8.820;2023-01-09T17:01:00;2.45;;;1.55;;
48042;SDS011;33988;47.992;8.820;2023-01-09T17:03:27;3.30;;;1.70;;
48042;SDS011;33988;47.992;8.820;2023-01-09T17:05:54;1.77;;;1.30;;
48042;SDS011;33988;47.992;8.820;2023-01-09T17:08:25;3.17;;;1.30;;
48042;SDS011;33988;47.992;8.820;2023-01-09T17:11:02;1.48;;;1.20;;
48042;SDS011;33988;47.992;8.820;2023-01-09T17:13:30;2.92;;;1.73;;
48042;SDS011;33988;47.992;8.820;2023-01-09T17:15:57;3.70;;;2.30;;
48042;SDS011;33988;47.992;8.820;2023-01-09T17:18:25;2.60;;;1.85;;
48042;SDS011;33988;47.992;8.820;2023-01-09T17:20:54;2.95;;;1.90;;
48042;SDS011;33988;47.992;8.820;2023-01-09T17:23:28;2.58;;;1.92;;
48042;SDS011;33988;47.992;8.820;2023-01-09T17:25:58;3.72;;;2.20;;
48042;SDS011;33988;47.992;8.820;2023-01-09T17:28:45;4.25;;;2.80;;
48042;SDS011;33988;47.992;8.820;2023-01-09T17:31:17;5.53;;;2.40;;
48042;SDS011;33988;47.992;8.820;2023-01-09T17:33:49;3.95;;;2.40;;
48042;SDS011;33988;47.992;8.820;2023-01-09T17:36:29;4.07;;;2.22;;
48042;SDS011;33988;47.992;8.820;2023-01-09T17:39:00;3.80;;;2.25;;
48042;SDS011;33988;47.992;8.820;2023-01-09T17:41:34;2.65;;;1.60;;
48042;SDS011;33988;47.992;8.820;2023-01-09T17:44:03;2.45;;;2.00;;
48042;SDS011;33988;47.992;8.820;2023-01-09T17:46:32;3.60;;;1.88;;
48042;SDS011;33988;47.992;8.820;2023-01-09T17:49:01;2.78;;;1.50;;
48042;SDS011;33988;47.992;8.820;2023-01-09T17:51:31;1.77;;;1.15;;
48042;SDS011;33988;47.992;8.820;2023-01-09T17:54:00;2.17;;;1.38;;
48042;SDS011;33988;47.992;8.820;2023-01-09T17:56:28;2.75;;;1.33;;
48042;SDS011;33988;47.992;8.820;2023-01-09T17:58:58;2.03;;;1.30;;
48042;SDS011;33988;47.992;8.820;2023-01-09T18:01:28;2.75;;;1.50;;
48042;SDS011;33988;47.992;8.820;2023-01-09T18:03:55;4.60;;;2.15;;
48042;SDS011;33988;47.992;8.820;2023-01-09T18:06:22;4.00;;;2.22;;
48042;SDS011;33988;47.992;8.820;2023-01-09T18:08:50;3.15;;;1.70;;
48042;SDS011;33988;47.992;8.820;2023-01-09T18:11:22;3.47;;;2.30;;
48042;SDS011;33988;47.992;8.820;2023-01-09T18:13:50;2.92;;;1.75;;
48042;SDS011;33988;47.992;8.820;2023-01-09T18:16:26;3.20;;;1.98;;
48042;SDS011;33988;47.992;8.820;2023-01-09T18:18:55;2.93;;;1.60;;
48042;SDS011;33988;47.992;8.820;2023-01-09T18:21:24;2.10;;;1.70;;
48042;SDS011;33988;47.992;8.820;2023-01-09T18:23:53;3.17;;;2.08;;
48042;SDS011;33988;47.992;8.820;2023-01-09T18:26:21;1.92;;;1.45;;
48042;SDS011;33988;47.992;8.820;2023-01-09T18:28:50;3.20;;;2.35;;
48042;SDS011;33988;47.992;8.820;2023-01-09T18:31:21;6.55;;;2.63;;
48042;SDS011;33988;47.992;8.820;2023-01-09T18:33:54;3.08;;;2.13;;
48042;SDS011;33988;47.992;8.820;2023-01-09T18:36:27;2.72;;;1.65;;
48042;SDS011;33988;47.992;8.820;2023-01-09T18:38:57;2.67;;;1.80;;
48042;SDS011;33988;47.992;8.820;2023-01-09T18:41:27;2.10;;;1.63;;
48042;SDS011;33988;47.992;8.820;2023-01-09T18:43:57;1.63;;;1.30;;
48042;SDS011;33988;47.992;8.820;2023-01-09T18:46:29;2.05;;;1.45;;
48042;SDS011;33988;47.992;8.820;2023-01-09T18:48:59;2.28;;;1.40;;